createdAt,value
2023-05-03T00:02:23.040Z,100059.59
2023-05-03T00:04:53.613Z,100064.28
2023-05-03T00:07:22.996Z,100056.59
2023-05-03T00:09:50.012Z,100058.78
2023-05-03T00:12:16.698Z,100056.28
2023-05-03T00:14:43.300Z,100059.06
2023-05-03T00:17:10.093Z,100057.47
2023-05-03T00:19:37.583Z,100061.06
2023-05-03T00:22:04.360Z,100067.31
2023-05-03T00:24:31.317Z,100076.22
2023-05-03T00:26:57.928Z,100070.25
2023-05-03T00:29:24.540Z,100070.25
2023-05-03T00:31:51.245Z,100074.72
2023-05-03T00:34:18.000Z,100066.09
2023-05-03T00:36:44.610Z,100064.59
2023-05-03T00:39:11.602Z,100057.69
2023-05-03T00:41:39.281Z,100051.81
2023-05-03T00:44:08.720Z,100056.38
2023-05-03T00:46:35.482Z,100052.38
2023-05-03T00:49:02.386Z,100044.75
2023-05-03T00:51:29.202Z,100050.97
2023-05-03T00:53:56.634Z,100066.00
2023-05-03T00:56:23.907Z,100058.31
2023-05-03T00:58:53.827Z,100055.94
2023-05-03T01:01:20.742Z,100050.81
2023-05-03T01:03:48.223Z,100059.59
2023-05-03T01:06:37.991Z,100058.75
2023-05-03T01:09:27.572Z,100056.25
2023-05-03T01:12:12.687Z,100051.13
2023-05-03T01:15:07.655Z,100052.19
2023-05-03T01:17:39.362Z,100050.53
2023-05-03T01:20:10.877Z,100050.69
2023-05-03T01:22:48.224Z,100054.22
2023-05-03T01:25:16.253Z,100058.78
2023-05-03T01:27:43.424Z,100057.94
2023-05-03T01:30:12.375Z,100056.19
2023-05-03T01:33:06.008Z,100060.72
2023-05-03T01:35:50.880Z,100066.97
2023-05-03T01:38:18.634Z,100065.41
2023-05-03T01:40:49.884Z,100067.25
2023-05-03T01:43:18.363Z,100069.91
2023-05-03T01:45:45.704Z,100068.34
2023-05-03T01:48:15.014Z,100075.47
2023-05-03T01:50:41.649Z,100071.19
2023-05-03T01:53:08.432Z,100073.88
2023-05-03T01:55:35.082Z,100067.88
2023-05-03T01:58:01.723Z,100066.34
2023-05-03T02:00:28.432Z,100069.94
2023-05-03T02:02:55.282Z,100062.16
2023-05-03T02:05:22.197Z,100079.75
2023-05-03T02:07:48.880Z,100077.25
2023-05-03T02:10:16.379Z,100078.16
2023-05-03T02:12:46.149Z,100089.53
2023-05-03T02:15:14.047Z,100086.94
2023-05-03T02:17:42.631Z,100082.56
2023-05-03T02:20:12.712Z,100081.81
2023-05-03T02:22:39.515Z,100084.53
2023-05-03T02:25:07.223Z,100088.16
2023-05-03T02:27:33.922Z,100080.50
2023-05-03T02:30:01.386Z,100086.63
2023-05-03T02:32:28.578Z,100099.84
2023-05-03T02:34:55.715Z,100100.72
2023-05-03T02:37:22.402Z,100096.44
2023-05-03T02:39:49.151Z,100087.88
2023-05-03T02:42:16.290Z,100092.53
2023-05-03T02:44:43.013Z,100092.53
2023-05-03T02:47:10.534Z,100095.16
2023-05-03T02:49:37.247Z,100088.34
2023-05-03T02:52:03.878Z,100092.78
2023-05-03T02:54:30.555Z,100088.50
2023-05-03T02:56:57.153Z,100085.94
2023-05-03T02:59:23.854Z,100082.53
2023-05-03T03:01:50.689Z,100086.97
2023-05-03T03:04:17.372Z,100081.81
2023-05-03T03:06:44.056Z,100090.63
2023-05-03T03:09:12.610Z,100088.09
2023-05-03T03:11:39.340Z,100087.28
2023-05-03T03:14:06.174Z,100096.88
2023-05-03T03:16:32.980Z,100096.91
2023-05-03T03:18:59.737Z,100097.91
2023-05-03T03:21:26.837Z,100092.72
2023-05-03T03:23:53.435Z,100101.41
2023-05-03T03:26:20.180Z,100096.34
2023-05-03T03:28:46.816Z,100104.31
2023-05-03T03:31:13.598Z,100100.78
2023-05-03T03:33:40.345Z,100106.97
2023-05-03T03:36:07.988Z,100106.84
2023-05-03T03:38:34.645Z,100106.84
2023-05-03T03:41:01.533Z,100104.34
2023-05-03T03:43:28.372Z,100119.19
2023-05-03T03:45:55.082Z,100114.06
2023-05-03T03:48:21.707Z,100120.28
2023-05-03T03:50:48.409Z,100122.94
2023-05-03T03:53:15.135Z,100124.72
2023-05-03T03:55:41.944Z,100128.22
2023-05-03T03:58:08.923Z,100125.66
2023-05-03T04:00:38.862Z,100132.69
2023-05-03T04:03:07.897Z,100127.59
2023-05-03T04:05:34.953Z,100125.06
2023-05-03T04:08:01.617Z,100132.03
2023-05-03T04:10:28.276Z,100130.28
2023-05-03T04:12:55.711Z,100131.16
2023-05-03T04:15:22.357Z,100138.16
2023-05-03T04:17:49.694Z,100140.78
2023-05-03T04:20:17.782Z,100147.75
2023-05-03T04:22:44.423Z,100146.03
2023-05-03T04:25:19.928Z,100145.16
2023-05-03T04:27:47.511Z,100149.47
2023-05-03T04:30:15.091Z,100153.84
2023-05-03T04:32:42.861Z,100158.19
2023-05-03T04:35:12.500Z,100155.56
2023-05-03T04:37:40.605Z,100154.63
2023-05-03T04:40:09.684Z,100160.66
2023-05-03T04:42:36.555Z,100152.84
2023-05-03T04:45:04.242Z,100156.28
2023-05-03T04:47:31.135Z,100154.41
2023-05-03T04:49:57.792Z,100156.00
2023-05-03T04:52:25.520Z,100156.41
2023-05-03T04:54:52.500Z,100155.09
2023-05-03T04:57:19.133Z,100157.16
2023-05-03T04:59:46.128Z,100155.25
2023-05-03T05:02:12.800Z,100147.34
2023-05-03T05:04:39.624Z,100157.69
2023-05-03T05:07:06.287Z,100154.94
2023-05-03T05:09:32.965Z,100156.63
2023-05-03T05:11:59.742Z,100160.81
2023-05-03T05:14:28.453Z,100154.50
2023-05-03T05:16:55.113Z,100162.16
2023-05-03T05:19:21.801Z,100159.44
2023-05-03T05:21:48.524Z,100162.16
2023-05-03T05:24:15.116Z,100163.06
2023-05-03T05:26:42.363Z,100162.22
2023-05-03T05:29:09.117Z,100162.88
2023-05-03T05:31:36.751Z,100167.09
2023-05-03T05:34:03.821Z,100167.03
2023-05-03T05:36:31.021Z,100171.13
2023-05-03T05:38:57.642Z,100166.56
2023-05-03T05:41:24.317Z,100170.75
2023-05-03T05:43:51.041Z,100170.53
2023-05-03T05:46:17.823Z,100171.06
2023-05-03T05:48:44.522Z,100168.19
2023-05-03T05:51:11.151Z,100168.88
2023-05-03T05:53:37.873Z,100173.16
2023-05-03T05:56:06.227Z,100178.94
2023-05-03T05:58:32.868Z,100180.34
2023-05-03T06:01:03.835Z,100184.44
2023-05-03T06:03:31.875Z,100179.81
2023-05-03T06:05:58.775Z,100181.13
2023-05-03T06:08:25.980Z,100175.38
2023-05-03T06:10:53.288Z,100174.94
2023-05-03T06:13:20.013Z,100181.28
2023-05-03T06:15:46.826Z,100177.78
2023-05-03T06:18:13.545Z,100172.53
2023-05-03T06:20:40.357Z,100177.75
2023-05-03T06:23:07.033Z,100171.66
2023-05-03T06:25:34.318Z,100169.13
2023-05-03T06:28:01.205Z,100163.13
2023-05-03T06:30:28.659Z,100158.09
2023-05-03T06:32:55.537Z,100167.88
2023-05-03T06:35:22.303Z,100166.25
2023-05-03T06:37:49.606Z,100160.31
2023-05-03T06:40:16.402Z,100152.34
2023-05-03T06:42:42.976Z,100160.97
2023-05-03T06:45:10.110Z,100152.88
2023-05-03T06:47:37.300Z,100156.13
2023-05-03T06:50:05.227Z,100149.53
2023-05-03T06:52:32.036Z,100153.47
2023-05-03T06:54:58.704Z,100151.31
2023-05-03T06:57:27.485Z,100143.69
2023-05-03T06:59:55.383Z,100145.97
2023-05-03T07:02:22.835Z,100137.09
2023-05-03T07:04:49.700Z,100135.88
2023-05-03T07:07:16.653Z,100136.47
2023-05-03T07:09:44.013Z,100133.56
2023-05-03T07:12:11.405Z,100131.78
2023-05-03T07:14:39.801Z,100126.16
2023-05-03T07:17:06.640Z,100127.94
2023-05-03T07:19:33.352Z,100136.84
2023-05-03T07:21:59.993Z,100131.00
2023-05-03T07:24:26.563Z,100138.28
2023-05-03T07:26:53.818Z,100126.47
2023-05-03T07:29:21.098Z,100128.78
2023-05-03T07:31:47.904Z,100131.88
2023-05-03T07:34:14.934Z,100134.47
2023-05-03T07:36:41.746Z,100127.94
2023-05-03T07:39:08.673Z,100116.75
2023-05-03T07:41:35.531Z,100117.38
2023-05-03T07:44:02.245Z,100117.09
2023-05-03T07:46:29.001Z,100115.31
2023-05-03T07:48:55.635Z,100109.16
2023-05-03T07:51:22.289Z,100114.41
2023-05-03T07:53:48.892Z,100114.41
2023-05-03T07:56:15.706Z,100108.94
2023-05-03T07:58:43.663Z,100106.25
2023-05-03T08:01:11.607Z,100104.25
2023-05-03T08:03:38.709Z,100106.03
2023-05-03T08:06:05.962Z,100107.84
2023-05-03T08:08:33.988Z,100106.25
2023-05-03T08:11:00.629Z,100109.91
2023-05-03T08:13:27.353Z,100104.50
2023-05-03T08:15:54.039Z,100101.00
2023-05-03T08:18:23.552Z,100104.34
2023-05-03T08:20:50.782Z,100094.63
2023-05-03T08:23:17.933Z,100095.16
2023-05-03T08:25:45.449Z,100101.75
2023-05-03T08:28:12.142Z,100100.66
2023-05-03T08:30:38.888Z,100101.31
2023-05-03T08:33:05.819Z,100103.13
2023-05-03T08:35:32.509Z,100103.75
2023-05-03T08:37:59.149Z,100108.81
2023-05-03T08:40:28.193Z,100095.56
2023-05-03T08:42:58.889Z,100097.88
2023-05-03T08:45:25.697Z,100095.53
2023-05-03T08:47:55.464Z,100093.66
2023-05-03T08:50:23.302Z,100090.03
2023-05-03T08:52:50.752Z,100095.19
2023-05-03T08:55:17.560Z,100091.88
2023-05-03T08:57:44.160Z,100090.72
2023-05-03T09:00:12.871Z,100087.84
2023-05-03T09:02:40.445Z,100088.00
2023-05-03T09:05:16.249Z,100085.03
2023-05-03T09:08:06.135Z,100090.53
2023-05-03T09:10:34.282Z,100088.44
2023-05-03T09:13:02.611Z,100089.59
2023-05-03T09:15:30.654Z,100096.31
2023-05-03T09:18:27.145Z,100084.91
2023-05-03T09:20:54.160Z,100085.72
2023-05-03T09:23:26.703Z,100079.09
2023-05-03T09:25:53.551Z,100091.53
2023-05-03T09:28:21.140Z,100080.34
2023-05-03T09:30:49.525Z,100088.66
2023-05-03T09:33:25.229Z,100094.78
2023-05-03T09:36:03.480Z,100091.47
2023-05-03T09:38:32.667Z,100080.88
2023-05-03T09:40:59.921Z,100082.56
2023-05-03T09:43:26.820Z,100084.59
2023-05-03T09:46:07.186Z,100080.38
2023-05-03T09:48:33.910Z,100080.88
2023-05-03T09:51:00.880Z,100077.81
2023-05-03T09:53:28.236Z,100071.72
2023-05-03T09:55:56.148Z,100065.72
2023-05-03T09:58:24.369Z,100072.56
2023-05-03T10:00:52.623Z,100066.50
2023-05-03T10:03:28.329Z,100068.97
2023-05-03T10:05:56.018Z,100068.03
2023-05-03T10:08:35.167Z,100067.53
2023-05-03T10:11:04.156Z,100063.91
2023-05-03T10:13:31.958Z,100072.09
2023-05-03T10:16:11.515Z,100068.41
2023-05-03T10:18:48.145Z,100071.44
2023-05-03T10:21:21.875Z,100071.16
2023-05-03T10:24:10.163Z,100056.72
2023-05-03T10:26:36.815Z,100054.81
2023-05-03T10:29:04.214Z,100053.00
2023-05-03T10:31:48.043Z,100053.38
2023-05-03T10:34:25.551Z,100056.28
2023-05-03T10:36:53.375Z,100056.50
2023-05-03T10:39:21.100Z,100055.25
2023-05-03T10:42:03.608Z,100062.25
2023-05-03T10:44:49.076Z,100054.84
2023-05-03T10:47:24.965Z,100053.31
2023-05-03T10:50:16.582Z,100056.63
2023-05-03T10:52:43.252Z,100048.84
2023-05-03T10:55:15.823Z,100050.81
2023-05-03T10:57:44.094Z,100040.44
2023-05-03T11:00:23.545Z,100051.25
2023-05-03T11:03:09.881Z,100041.53
2023-05-03T11:05:37.684Z,100038.13
2023-05-03T11:08:11.157Z,100025.97
2023-05-03T11:10:37.898Z,100020.38
2023-05-03T11:13:04.623Z,100020.25
2023-05-03T11:15:31.472Z,100022.81
2023-05-03T11:17:58.212Z,100011.94
2023-05-03T11:20:24.956Z,100017.28
2023-05-03T11:22:52.388Z,100021.66
2023-05-03T11:25:19.823Z,100018.94
2023-05-03T11:27:49.476Z,100016.53
2023-05-03T11:30:16.316Z,100015.63
2023-05-03T11:32:43.337Z,100001.97
2023-05-03T11:35:12.324Z,99998.69
2023-05-03T11:37:38.954Z,99989.22
2023-05-03T11:40:30.399Z,99987.47
2023-05-03T11:43:00.883Z,99988.38
2023-05-03T11:45:38.378Z,99984.31
2023-05-03T11:48:05.311Z,99991.50
2023-05-03T11:50:57.674Z,99986.56
2023-05-03T11:53:26.392Z,99981.94
2023-05-03T11:55:54.628Z,99983.84
2023-05-03T11:58:26.610Z,99994.88
2023-05-03T12:00:55.978Z,99986.03
2023-05-03T12:03:28.551Z,99988.53
2023-05-03T12:05:58.410Z,99985.00
2023-05-03T12:08:35.536Z,99979.88
2023-05-03T12:11:06.444Z,99984.38
2023-05-03T12:13:38.616Z,99980.03
2023-05-03T12:16:13.685Z,99982.97
2023-05-03T12:18:58.908Z,99966.81
2023-05-03T12:21:59.145Z,99976.22
2023-05-03T12:24:34.744Z,99974.00
2023-05-03T12:27:02.925Z,99969.97
2023-05-03T12:29:34.824Z,99958.69
2023-05-03T12:32:03.801Z,99971.72
2023-05-03T12:34:34.870Z,99960.72
2023-05-03T12:37:05.588Z,99957.00
2023-05-03T12:39:33.957Z,99964.41
2023-05-03T12:44:35.124Z,99961.19
2023-05-03T12:47:02.532Z,99956.41
2023-05-03T12:49:29.633Z,99950.28
2023-05-03T12:52:18.505Z,99957.84
2023-05-03T12:54:48.786Z,99937.59
2023-05-03T12:57:22.092Z,99939.13
2023-05-03T12:59:55.656Z,99932.31
2023-05-03T13:05:00.412Z,99939.06
2023-05-03T13:07:29.660Z,99937.94
2023-05-03T13:12:28.120Z,99922.75
2023-05-03T13:14:57.964Z,99929.34
2023-05-03T13:17:25.169Z,99924.84
2023-05-03T13:19:53.272Z,99921.22
2023-05-03T13:22:19.888Z,99921.84
2023-05-03T13:24:48.137Z,99917.06
2023-05-03T13:27:15.990Z,99912.31
2023-05-03T13:29:42.688Z,99908.19
2023-05-03T13:32:09.656Z,99908.97
2023-05-03T13:34:37.021Z,99902.78
2023-05-03T13:37:04.770Z,99897.22
2023-05-03T13:39:32.083Z,99901.78
2023-05-03T13:41:59.041Z,99896.38
2023-05-03T13:44:26.275Z,99888.53
2023-05-03T13:46:53.647Z,99883.69
2023-05-03T13:49:20.848Z,99882.81
2023-05-03T13:51:47.751Z,99879.94
2023-05-03T13:54:14.463Z,99875.94
2023-05-03T13:56:42.904Z,99879.28
2023-05-03T13:59:12.452Z,99870.03
2023-05-03T14:01:39.585Z,99873.94
2023-05-03T14:04:06.703Z,99869.56
2023-05-03T14:06:33.974Z,99867.84
2023-05-03T14:09:02.016Z,99866.63
2023-05-03T14:11:30.468Z,99860.22
2023-05-03T14:13:58.567Z,99869.00
2023-05-03T14:18:57.204Z,99850.81
2023-05-03T14:21:23.885Z,99856.44
2023-05-03T14:23:51.105Z,99853.28
2023-05-03T14:26:19.383Z,99849.50
2023-05-03T14:28:46.292Z,99849.25
2023-05-03T14:31:13.376Z,99857.31
2023-05-03T14:33:40.100Z,99849.47
2023-05-03T14:36:08.562Z,99856.44
2023-05-03T14:38:35.900Z,99849.47
2023-05-03T14:41:02.820Z,99842.00
2023-05-03T14:43:29.538Z,99852.13
2023-05-03T14:45:56.168Z,99847.09
2023-05-03T14:48:23.469Z,99840.50
2023-05-03T14:50:51.770Z,99837.81
2023-05-03T14:53:18.685Z,99838.41
2023-05-03T14:55:46.101Z,99835.19
2023-05-03T14:58:13.450Z,99843.84
2023-05-03T15:00:41.501Z,99827.97
2023-05-03T15:03:12.288Z,99832.59
2023-05-03T15:05:46.574Z,99836.03
2023-05-03T15:08:19.436Z,99833.00
2023-05-03T15:10:47.773Z,99835.88
2023-05-03T15:13:16.293Z,99835.44
2023-05-03T15:15:44.257Z,99836.59
2023-05-03T15:18:11.442Z,99839.81
2023-05-03T15:20:38.690Z,99836.88
2023-05-03T15:23:05.919Z,99837.69
2023-05-03T15:25:32.778Z,99824.44
2023-05-03T15:28:03.705Z,99833.44
2023-05-03T15:30:31.318Z,99824.22
2023-05-03T15:32:58.103Z,99835.91
2023-05-03T15:35:24.810Z,99828.72
2023-05-03T15:37:51.550Z,99825.94
2023-05-03T15:40:18.711Z,99827.47
2023-05-03T15:42:45.465Z,99829.16
2023-05-03T15:45:13.197Z,99836.34
2023-05-03T15:47:40.031Z,99837.44
2023-05-03T15:50:13.570Z,99830.13
2023-05-03T15:52:40.438Z,99825.88
2023-05-03T15:55:09.069Z,99826.13
2023-05-03T15:57:35.771Z,99827.84
2023-05-03T16:00:03.292Z,99822.91
2023-05-03T16:02:30.727Z,99830.34
2023-05-03T16:04:57.469Z,99821.94
2023-05-03T16:07:24.145Z,99827.84
2023-05-03T16:09:51.058Z,99823.16
2023-05-03T16:12:17.667Z,99823.25
2023-05-03T16:14:44.308Z,99828.34
2023-05-03T16:17:11.125Z,99826.78
2023-05-03T16:19:37.822Z,99823.00
2023-05-03T16:22:05.216Z,99821.31
2023-05-03T16:24:33.423Z,99825.78
2023-05-03T16:27:01.863Z,99817.09
2023-05-03T16:29:29.888Z,99815.66
2023-05-03T16:31:56.642Z,99821.81
2023-05-03T16:34:23.395Z,99819.78
2023-05-03T16:36:50.042Z,99822.09
2023-05-03T16:39:16.776Z,99815.94
2023-05-03T16:41:43.653Z,99817.63
2023-05-03T16:44:10.252Z,99819.53
2023-05-03T16:46:40.969Z,99811.16
2023-05-03T16:49:07.632Z,99817.25
2023-05-03T16:51:34.540Z,99814.31
2023-05-03T16:54:03.892Z,99808.06
2023-05-03T16:56:31.425Z,99807.88
2023-05-03T16:58:59.346Z,99811.31
2023-05-03T17:01:26.434Z,99810.13
2023-05-03T17:03:53.456Z,99808.66
2023-05-03T17:06:20.549Z,99813.06
2023-05-03T17:08:47.201Z,99806.97
2023-05-03T17:11:14.768Z,99814.44
2023-05-03T17:13:41.841Z,99815.53
2023-05-03T17:16:15.216Z,99814.94
2023-05-03T17:18:42.715Z,99808.94
2023-05-03T17:21:10.023Z,99816.97
2023-05-03T17:23:38.510Z,99810.06
2023-05-03T17:26:08.435Z,99811.81
2023-05-03T17:28:36.059Z,99810.13
2023-05-03T17:31:03.563Z,99805.41
2023-05-03T17:33:30.248Z,99809.72
2023-05-03T17:35:57.012Z,99811.88
2023-05-03T17:38:23.865Z,99810.34
2023-05-03T17:40:50.830Z,99808.91
2023-05-03T17:43:17.989Z,99804.34
2023-05-03T17:45:47.413Z,99808.19
2023-05-03T17:48:14.472Z,99806.56
2023-05-03T17:50:43.232Z,99809.94
2023-05-03T17:53:09.996Z,99810.66
2023-05-03T17:55:38.194Z,99812.88
2023-05-03T17:58:06.529Z,99811.16
2023-05-03T18:00:34.019Z,99802.22
2023-05-03T18:03:01.283Z,99804.91
2023-05-03T18:05:28.294Z,99807.31
2023-05-03T18:07:55.033Z,99811.56
2023-05-03T18:10:22.371Z,99811.41
2023-05-03T18:12:49.179Z,99810.09
2023-05-03T18:15:16.255Z,99811.63
2023-05-03T18:17:43.500Z,99818.16
2023-05-03T18:20:11.026Z,99812.59
2023-05-03T18:22:37.806Z,99805.09
2023-05-03T18:25:07.437Z,99809.56
2023-05-03T18:27:37.578Z,99810.63
2023-05-03T18:30:06.871Z,99819.03
2023-05-03T18:32:34.720Z,99807.41
2023-05-03T18:35:03.634Z,99818.75
2023-05-03T18:37:30.312Z,99813.28
2023-05-03T18:39:56.936Z,99821.50
2023-05-03T18:42:23.567Z,99827.03
2023-05-03T18:44:50.336Z,99825.22
2023-05-03T18:47:20.897Z,99826.38
2023-05-03T18:49:51.708Z,99826.38
2023-05-03T18:52:22.311Z,99819.31
2023-05-03T18:54:52.421Z,99824.22
2023-05-03T18:57:19.181Z,99830.72
2023-05-03T18:59:59.564Z,99825.00
2023-05-03T19:02:30.716Z,99826.84
2023-05-03T19:04:58.198Z,99834.53
2023-05-03T19:07:25.110Z,99826.78
2023-05-03T19:09:56.011Z,99830.63
2023-05-03T19:12:23.044Z,99836.28
2023-05-03T19:14:49.935Z,99839.16
2023-05-03T19:17:16.854Z,99841.28
2023-05-03T19:19:43.548Z,99850.19
2023-05-03T19:22:10.421Z,99841.28
2023-05-03T19:24:37.087Z,99844.81
2023-05-03T19:27:04.825Z,99846.59
2023-05-03T19:29:31.709Z,99846.59
2023-05-03T19:31:58.391Z,99844.78
2023-05-03T19:34:25.148Z,99838.94
2023-05-03T19:36:51.780Z,99836.50
2023-05-03T19:39:18.380Z,99843.06
2023-05-03T19:41:45.166Z,99835.53
2023-05-03T19:44:12.319Z,99839.78
2023-05-03T19:46:39.263Z,99841.03
2023-05-03T19:49:06.318Z,99845.06
2023-05-03T19:51:33.199Z,99842.47
2023-05-03T19:54:03.293Z,99848.00
2023-05-03T19:56:30.007Z,99844.78
2023-05-03T19:58:56.963Z,99841.91
2023-05-03T20:01:23.869Z,99846.66
2023-05-03T20:03:53.515Z,99854.16
2023-05-03T20:06:20.974Z,99853.59
2023-05-03T20:08:47.696Z,99857.38
2023-05-03T20:11:14.250Z,99856.84
2023-05-03T20:13:40.860Z,99861.75
2023-05-03T20:16:08.403Z,99861.41
2023-05-03T20:18:35.279Z,99856.78
2023-05-03T20:21:03.355Z,99865.25
2023-05-03T20:23:29.999Z,99863.25
2023-05-03T20:25:57.090Z,99855.22
2023-05-03T20:28:23.877Z,99856.16
2023-05-03T20:30:50.673Z,99854.34
2023-05-03T20:33:17.353Z,99862.69
2023-05-03T20:35:44.685Z,99857.97
2023-05-03T20:38:11.485Z,99857.69
2023-05-03T20:40:38.424Z,99850.31
2023-05-03T20:43:05.061Z,99850.72
2023-05-03T20:45:31.960Z,99848.44
2023-05-03T20:47:58.763Z,99850.59
2023-05-03T20:50:25.474Z,99841.69
2023-05-03T20:52:52.081Z,99846.34
2023-05-03T20:55:21.576Z,99845.09
2023-05-03T20:57:48.045Z,99849.31
2023-05-03T21:00:15.991Z,99844.41
2023-05-03T21:02:43.237Z,99841.84
2023-05-03T21:05:11.398Z,99840.81
2023-05-03T21:07:38.680Z,99842.22
2023-05-03T21:10:07.321Z,99845.78
2023-05-03T21:12:34.802Z,99847.88
2023-05-03T21:15:01.630Z,99851.72
2023-05-03T21:17:28.268Z,99836.25
2023-05-03T21:19:54.921Z,99845.38
2023-05-03T21:22:21.831Z,99842.31
2023-05-03T21:24:48.543Z,99845.44
2023-05-03T21:27:15.199Z,99842.19
2023-05-03T21:29:41.780Z,99842.44
2023-05-03T21:32:08.505Z,99841.78
2023-05-03T21:34:35.218Z,99844.16
2023-05-03T21:37:01.861Z,99841.88
2023-05-03T21:39:28.732Z,99841.28
2023-05-03T21:41:55.461Z,99842.34
2023-05-03T21:44:22.079Z,99837.50
2023-05-03T21:46:48.726Z,99834.16
2023-05-03T21:49:15.900Z,99836.28
2023-05-03T21:51:42.483Z,99842.75
2023-05-03T21:54:09.103Z,99840.38
2023-05-03T21:56:35.742Z,99836.63
2023-05-03T21:59:02.336Z,99831.84
2023-05-03T22:01:29.854Z,99837.31
2023-05-03T22:03:56.665Z,99834.94
2023-05-03T22:06:23.529Z,99833.38
2023-05-03T22:08:50.121Z,99837.19
2023-05-03T22:11:16.790Z,99833.88
2023-05-03T22:13:58.770Z,99827.22
2023-05-03T22:16:30.162Z,99824.00
2023-05-03T22:18:57.002Z,99822.28
2023-05-03T22:21:23.713Z,99828.75
2023-05-03T22:23:50.299Z,99831.59
2023-05-03T22:26:16.997Z,99825.97
2023-05-03T22:28:44.286Z,99828.84
2023-05-03T22:31:11.049Z,99821.09
2023-05-03T22:33:37.694Z,99815.19
2023-05-03T22:36:04.448Z,99813.81
2023-05-03T22:38:31.374Z,99825.28
2023-05-03T22:40:58.048Z,99829.78
2023-05-03T22:43:24.661Z,99830.09
2023-05-03T22:45:51.302Z,99830.09
2023-05-03T22:48:17.923Z,99832.81
2023-05-03T22:50:44.574Z,99821.50
2023-05-03T22:53:11.256Z,99821.72
2023-05-03T22:55:37.975Z,99827.38
2023-05-03T22:58:04.568Z,99817.94
2023-05-03T23:00:31.500Z,99814.00
2023-05-03T23:02:58.815Z,99816.00
2023-05-03T23:05:25.789Z,99816.88
2023-05-03T23:07:52.661Z,99819.72
2023-05-03T23:10:19.338Z,99809.34
2023-05-03T23:12:46.113Z,99814.06
2023-05-03T23:15:12.888Z,99810.81
2023-05-03T23:17:40.029Z,99819.84
2023-05-03T23:20:07.638Z,99811.25
2023-05-03T23:22:34.353Z,99815.81
2023-05-03T23:25:01.018Z,99816.81
2023-05-03T23:27:27.645Z,99810.00
2023-05-03T23:29:54.811Z,99804.81
2023-05-03T23:32:22.050Z,99804.06
2023-05-03T23:34:49.297Z,99805.13
2023-05-03T23:37:15.915Z,99802.78
2023-05-03T23:39:44.353Z,99803.00
2023-05-03T23:42:12.225Z,99803.25
2023-05-03T23:44:53.685Z,99806.78
2023-05-03T23:47:21.122Z,99802.69
2023-05-03T23:49:47.754Z,99804.75
2023-05-03T23:52:16.898Z,99793.50
2023-05-03T23:54:43.595Z,99799.78
2023-05-03T23:57:10.276Z,99790.31
2023-05-03T23:59:37.127Z,99794.94
